Harrisville, West Virginia
Current Conditions -  °F | °C
As of 5:22 PM on Tuesday 21 Oct 2014 (Local Time) from KPKB Reporting Station
Light Rain Light Rain  
Wind Chill: 50°   Ceiling: 3200
Heat Index: 50°   Visibility: 5mi
Dew Point: 47°   Wind: 6mph
Humidity: 89%   Direction: 320°NW
Pressure: 30.02"   Gusts: NA
Location:  39.21°N, 81.05°W
Report Text: KPKB 212122Z 32005KT 5SM -RA BR FEW009 BKN032 OVC042 10/08 A3002 RMK AO2 P0005 T01000083
Loading
Personal Weather Stations






























Interactive Weather Map
Tropical Storm Tracking
New forecast layout! Learn more

10-Day Weather Forecast

Advertisements
Track Severe Weather on mobile